createdAt,value
2022-08-22T00:02:11.410Z,4.00
2022-08-22T00:02:55.897Z,7.00
2022-08-22T00:03:02.382Z,8.20
2022-08-22T00:05:31.770Z,4.50
2022-08-22T00:09:20.891Z,3.60
2022-08-22T00:12:15.624Z,4.60
2022-08-22T00:15:43.048Z,4.50
2022-08-22T00:18:46.157Z,4.00
2022-08-22T00:21:40.699Z,3.80
2022-08-22T00:24:26.639Z,4.30
2022-08-22T00:27:10.074Z,4.00
2022-08-22T00:29:50.274Z,4.20
2022-08-22T00:32:35.212Z,3.90
2022-08-22T00:35:24.830Z,4.40
2022-08-22T00:38:31.477Z,4.80
2022-08-22T00:41:18.191Z,4.30
2022-08-22T00:43:54.834Z,4.60
2022-08-22T00:46:41.807Z,4.50
2022-08-22T00:49:34.399Z,4.70
2022-08-22T00:52:22.308Z,4.60
2022-08-22T00:55:11.982Z,4.20
2022-08-22T01:03:01.716Z,5.60
2022-08-22T01:06:04.008Z,4.80
2022-08-22T01:08:51.585Z,4.60
2022-08-22T01:12:07.512Z,4.30
2022-08-22T01:14:53.342Z,5.40
2022-08-22T01:17:33.463Z,4.20
2022-08-22T01:20:42.918Z,4.00
2022-08-22T01:23:47.565Z,4.10
2022-08-22T01:26:41.290Z,4.50
2022-08-22T01:29:40.424Z,4.10
2022-08-22T01:32:31.325Z,4.10
2022-08-22T01:35:20.912Z,4.10
2022-08-22T01:38:20.691Z,3.80
2022-08-22T01:41:10.465Z,4.50
2022-08-22T01:43:59.684Z,4.00
2022-08-22T01:47:02.059Z,3.60
2022-08-22T01:49:49.299Z,3.70
2022-08-22T01:52:43.291Z,4.20
2022-08-22T01:55:25.027Z,3.60
2022-08-22T01:58:27.974Z,4.40
2022-08-22T02:01:28.752Z,4.20
2022-08-22T02:08:26.572Z,4.00
2022-08-22T02:11:53.594Z,4.50
2022-08-22T02:15:07.609Z,4.50
2022-08-22T02:18:29.063Z,4.10
2022-08-22T02:22:14.923Z,4.20
2022-08-22T02:26:10.177Z,3.40
2022-08-22T02:30:16.140Z,4.50
2022-08-22T02:33:56.045Z,4.00
2022-08-22T02:36:34.588Z,3.70
2022-08-22T02:39:13.269Z,4.10
2022-08-22T02:42:51.787Z,4.20
2022-08-22T02:46:52.593Z,3.90
2022-08-22T02:50:13.317Z,4.10
2022-08-22T03:02:39.946Z,4.00
2022-08-22T03:35:37.810Z,4.60
2022-08-22T03:42:30.468Z,3.90
2022-08-22T03:46:08.742Z,4.60
2022-08-22T03:49:13.869Z,4.50
2022-08-22T03:52:15.578Z,4.90
2022-08-22T04:03:19.820Z,3.80
2022-08-22T04:06:19.763Z,4.20
2022-08-22T04:09:49.569Z,3.80
2022-08-22T04:12:59.654Z,3.70
2022-08-22T04:15:56.356Z,4.40
2022-08-22T04:19:02.325Z,14.90
2022-08-22T04:21:42.815Z,8.60
2022-08-22T04:24:38.638Z,4.00
2022-08-22T04:27:40.764Z,3.40
2022-08-22T04:30:31.462Z,3.50
2022-08-22T04:33:53.955Z,2.70
2022-08-22T04:36:48.028Z,3.10
2022-08-22T04:39:28.752Z,2.30
2022-08-22T04:42:36.372Z,3.80
2022-08-22T04:45:12.525Z,3.50
2022-08-22T04:48:05.190Z,3.00
2022-08-22T04:50:43.317Z,3.70
2022-08-22T04:53:33.118Z,4.90
2022-08-22T04:56:25.038Z,4.70
2022-08-22T04:59:03.512Z,3.90
2022-08-22T05:01:55.325Z,2.90
2022-08-22T05:04:38.160Z,1.80
2022-08-22T05:07:12.597Z,2.10
2022-08-22T05:09:46.361Z,1.90
2022-08-22T05:12:21.949Z,3.90
2022-08-22T05:14:55.202Z,3.30
2022-08-22T05:17:26.988Z,2.90
2022-08-22T05:19:58.929Z,2.50
2022-08-22T05:22:36.784Z,2.50
2022-08-22T05:25:11.785Z,2.60
2022-08-22T05:27:45.080Z,3.10
2022-08-22T05:30:21.059Z,3.50
2022-08-22T05:33:18.983Z,3.40
2022-08-22T05:35:58.173Z,4.40
2022-08-22T05:38:32.716Z,3.30
2022-08-22T05:41:06.560Z,2.60
2022-08-22T05:43:41.188Z,2.30
2022-08-22T05:46:26.189Z,2.60
2022-08-22T05:49:00.050Z,2.30
2022-08-22T05:51:44.523Z,2.70
2022-08-22T05:54:19.981Z,2.50
2022-08-22T05:57:13.378Z,2.10
2022-08-22T05:59:47.793Z,2.60
2022-08-22T06:02:22.653Z,2.30
2022-08-22T06:04:59.182Z,2.50
2022-08-22T06:07:40.360Z,2.70
2022-08-22T06:10:22.758Z,2.70
2022-08-22T06:12:55.984Z,2.60
2022-08-22T06:15:49.296Z,2.60
2022-08-22T06:18:22.761Z,3.00
2022-08-22T06:21:39.384Z,2.80
2022-08-22T06:25:11.317Z,2.80
2022-08-22T06:36:30.519Z,2.70
2022-08-22T06:44:49.019Z,3.00
2022-08-22T07:04:26.917Z,2.50
2022-08-22T07:07:01.006Z,2.40
2022-08-22T07:10:00.333Z,2.50
2022-08-22T07:12:53.359Z,2.70
2022-08-22T07:15:43.296Z,2.30
2022-08-22T07:18:21.794Z,2.30
2022-08-22T07:21:01.165Z,2.50
2022-08-22T07:23:52.245Z,2.90
2022-08-22T07:27:40.193Z,2.40
2022-08-22T07:30:27.272Z,2.90
2022-08-22T07:33:26.173Z,2.50
2022-08-22T07:36:33.827Z,2.70
2022-08-22T07:39:30.107Z,3.10
2022-08-22T07:42:24.989Z,2.40
2022-08-22T07:45:43.455Z,3.00
2022-08-22T07:54:57.721Z,2.20
2022-08-22T07:57:36.226Z,2.90
2022-08-22T08:00:12.485Z,2.60
2022-08-22T08:03:07.023Z,3.40
2022-08-22T08:05:38.380Z,3.90
2022-08-22T08:08:20.258Z,4.20
2022-08-22T08:10:51.486Z,3.70
2022-08-22T08:13:24.816Z,3.40
2022-08-22T08:15:53.269Z,3.30
2022-08-22T08:18:26.463Z,3.10
2022-08-22T08:20:59.368Z,3.80
2022-08-22T08:23:33.045Z,3.60
2022-08-22T08:26:18.352Z,3.50
2022-08-22T08:28:57.576Z,3.80
2022-08-22T08:31:39.833Z,3.80
2022-08-22T08:34:26.831Z,5.10
2022-08-22T08:36:57.864Z,4.60
2022-08-22T08:39:37.429Z,3.90
2022-08-22T08:42:23.443Z,3.60
2022-08-22T08:45:06.851Z,3.90
2022-08-22T08:48:09.408Z,3.70
2022-08-22T08:51:18.671Z,4.20
2022-08-22T08:54:09.028Z,3.80
2022-08-22T08:57:15.678Z,4.30
2022-08-22T09:00:14.721Z,3.40
2022-08-22T09:02:42.692Z,3.60
2022-08-22T09:05:16.761Z,3.60
2022-08-22T09:08:27.623Z,3.40
2022-08-22T09:11:34.336Z,7.60
2022-08-22T09:14:48.096Z,3.60
2022-08-22T09:17:31.966Z,4.60
2022-08-22T09:20:46.391Z,3.50
2022-08-22T09:23:24.232Z,3.90
2022-08-22T09:26:37.449Z,4.00
2022-08-22T09:29:30.113Z,3.30
2022-08-22T09:32:14.188Z,3.50
2022-08-22T09:34:53.235Z,3.90
2022-08-22T09:37:28.848Z,3.20
2022-08-22T09:40:17.488Z,6.00
2022-08-22T09:43:02.910Z,7.00
2022-08-22T09:46:06.573Z,3.30
2022-08-22T09:48:42.735Z,2.80
2022-08-22T09:51:31.456Z,2.90
2022-08-22T09:54:31.158Z,3.50
2022-08-22T09:57:27.745Z,3.00
2022-08-22T10:00:22.481Z,3.10
2022-08-22T10:03:08.975Z,3.00
2022-08-22T10:06:05.541Z,3.40
2022-08-22T10:08:48.620Z,3.00
2022-08-22T10:11:34.409Z,3.30
2022-08-22T10:17:21.880Z,3.20
2022-08-22T10:19:58.619Z,3.60
2022-08-22T10:22:49.923Z,3.20
2022-08-22T10:25:41.668Z,3.30
2022-08-22T10:28:31.369Z,5.00
2022-08-22T10:31:28.927Z,3.80
2022-08-22T10:34:10.512Z,3.30
2022-08-22T10:36:53.895Z,3.50
2022-08-22T10:39:30.720Z,3.90
2022-08-22T10:42:28.795Z,4.10
2022-08-22T10:45:36.783Z,3.70
2022-08-22T10:48:04.882Z,3.40
2022-08-22T10:51:04.362Z,3.20
2022-08-22T10:56:28.922Z,2.80
2022-08-22T10:59:46.214Z,4.20
2022-08-22T11:02:21.223Z,5.30
2022-08-22T11:05:29.855Z,2.90
2022-08-22T11:08:20.385Z,2.80
2022-08-22T11:11:13.643Z,2.80
2022-08-22T11:14:19.344Z,3.30
2022-08-22T11:17:30.265Z,2.90
2022-08-22T11:20:19.745Z,3.10
2022-08-22T11:23:12.407Z,3.00
2022-08-22T11:29:14.128Z,3.10
2022-08-22T11:31:51.536Z,2.70
2022-08-22T11:34:40.552Z,3.30
2022-08-22T11:37:24.091Z,2.60
2022-08-22T11:40:37.407Z,2.90
2022-08-22T11:43:39.884Z,2.70
2022-08-22T11:46:22.914Z,3.00
2022-08-22T11:49:15.824Z,2.70
2022-08-22T11:52:19.502Z,3.50
2022-08-22T11:55:05.525Z,3.60
2022-08-22T11:57:44.368Z,4.80
2022-08-22T12:00:20.770Z,3.30
2022-08-22T12:02:54.541Z,3.60
2022-08-22T12:05:29.492Z,3.20
2022-08-22T12:08:09.022Z,3.20
2022-08-22T12:11:12.631Z,3.30
2022-08-22T12:14:05.838Z,3.50
2022-08-22T12:16:45.232Z,3.00
2022-08-22T12:19:32.933Z,2.90
2022-08-22T12:22:19.323Z,2.50
2022-08-22T12:25:07.964Z,9.80
2022-08-22T12:27:48.063Z,3.70
2022-08-22T12:30:31.186Z,3.10
2022-08-22T12:33:25.822Z,3.40
2022-08-22T12:36:35.297Z,4.10
2022-08-22T12:39:15.151Z,4.10
2022-08-22T12:42:01.779Z,3.80
2022-08-22T12:44:47.086Z,3.70
2022-08-22T12:47:27.050Z,2.50
2022-08-22T12:50:12.926Z,2.10
2022-08-22T12:53:18.170Z,2.20
2022-08-22T12:56:11.989Z,2.80
2022-08-22T12:59:08.624Z,18.60
2022-08-22T13:01:43.490Z,2.70
2022-08-22T13:04:33.830Z,3.40
2022-08-22T13:07:42.242Z,2.30
2022-08-22T13:10:17.388Z,2.20
2022-08-22T13:12:52.184Z,2.00
2022-08-22T13:15:26.366Z,1.80
2022-08-22T13:18:13.205Z,1.90
2022-08-22T13:20:56.914Z,2.00
2022-08-22T13:23:42.686Z,1.90
2022-08-22T13:26:31.970Z,5.60
2022-08-22T13:29:39.687Z,1.50
2022-08-22T13:32:03.264Z,1.30
2022-08-22T13:35:03.185Z,1.60
2022-08-22T13:37:40.227Z,1.00
2022-08-22T13:40:32.263Z,1.40
2022-08-22T13:43:07.817Z,1.40
2022-08-22T13:45:46.186Z,1.60
2022-08-22T13:48:15.342Z,1.50
2022-08-22T13:51:12.378Z,1.80
2022-08-22T13:54:00.866Z,1.30
2022-08-22T13:56:50.775Z,1.30
2022-08-22T14:00:00.500Z,0.90
2022-08-22T14:02:44.442Z,1.30
2022-08-22T14:05:29.547Z,1.10
2022-08-22T14:08:13.036Z,1.50
2022-08-22T14:10:57.995Z,7.60
2022-08-22T14:13:39.957Z,2.20
2022-08-22T14:16:32.356Z,2.20
2022-08-22T14:19:11.410Z,3.00
2022-08-22T14:21:52.260Z,2.00
2022-08-22T14:24:28.300Z,2.20
2022-08-22T14:27:08.179Z,3.00
2022-08-22T14:29:42.270Z,1.80
2022-08-22T14:32:47.871Z,2.00
2022-08-22T14:35:23.569Z,3.70
2022-08-22T14:38:34.939Z,1.70
2022-08-22T14:41:09.151Z,1.60
2022-08-22T14:43:48.155Z,2.50
2022-08-22T14:49:13.773Z,1.90
2022-08-22T14:52:10.238Z,2.10
2022-08-22T14:54:47.323Z,1.70
2022-08-22T14:57:22.198Z,2.00
2022-08-22T14:59:52.798Z,2.40
2022-08-22T15:02:30.748Z,1.90
2022-08-22T15:05:12.751Z,2.00
2022-08-22T15:07:40.756Z,3.40
2022-08-22T15:10:34.306Z,1.90
2022-08-22T15:13:07.789Z,1.80
2022-08-22T15:15:53.580Z,2.20
2022-08-22T15:18:23.739Z,1.70
2022-08-22T15:21:08.752Z,1.90
2022-08-22T15:23:45.320Z,2.00
2022-08-22T15:26:25.744Z,1.20
2022-08-22T15:29:02.615Z,1.40
2022-08-22T15:31:32.737Z,1.20
2022-08-22T15:34:13.560Z,1.10
2022-08-22T15:37:09.824Z,1.20
2022-08-22T15:40:08.388Z,1.10
2022-08-22T15:42:51.236Z,1.40
2022-08-22T15:45:33.966Z,1.00
2022-08-22T15:48:07.216Z,0.90
2022-08-22T15:50:39.787Z,1.30
2022-08-22T15:53:24.870Z,1.50
2022-08-22T15:56:32.347Z,1.70
2022-08-22T15:59:54.151Z,3.10
2022-08-22T16:02:35.263Z,2.40
2022-08-22T16:05:11.091Z,2.80
2022-08-22T16:07:43.951Z,2.00
2022-08-22T16:10:30.382Z,2.40
2022-08-22T16:13:38.138Z,2.30
2022-08-22T16:16:34.658Z,2.20
2022-08-22T16:19:02.996Z,2.20
2022-08-22T16:22:08.135Z,1.70
2022-08-22T16:25:03.021Z,1.70
2022-08-22T16:27:34.585Z,1.80
2022-08-22T16:30:09.498Z,1.80
2022-08-22T16:32:50.272Z,2.60
2022-08-22T16:36:17.043Z,1.70
2022-08-22T16:38:50.584Z,1.90
2022-08-22T16:41:41.570Z,1.90
2022-08-22T16:44:39.435Z,2.80
2022-08-22T16:47:21.609Z,2.00
2022-08-22T16:49:48.829Z,1.50
2022-08-22T16:52:28.201Z,1.70
2022-08-22T16:55:41.745Z,2.00
2022-08-22T16:58:35.706Z,1.90
2022-08-22T17:02:23.111Z,1.80
2022-08-22T17:09:05.105Z,1.90
2022-08-22T17:12:18.767Z,1.70
2022-08-22T17:15:47.868Z,2.00
2022-08-22T17:18:58.569Z,2.50
2022-08-22T17:21:57.297Z,2.50
2022-08-22T17:25:13.843Z,3.80
2022-08-22T17:28:34.185Z,3.40
2022-08-22T17:31:58.574Z,4.10
2022-08-22T17:34:56.745Z,4.50
2022-08-22T17:38:39.579Z,5.10
2022-08-22T17:41:26.788Z,4.50
2022-08-22T17:44:29.736Z,4.40
2022-08-22T17:47:06.898Z,5.70
2022-08-22T17:49:50.998Z,5.30
2022-08-22T17:52:33.265Z,5.40
2022-08-22T17:55:31.594Z,5.70
2022-08-22T17:58:37.546Z,5.80
2022-08-22T18:01:35.891Z,6.20
2022-08-22T18:04:10.698Z,5.80
2022-08-22T18:06:56.230Z,6.80
2022-08-22T18:10:07.030Z,6.80
2022-08-22T18:14:12.542Z,7.30
2022-08-22T18:18:29.542Z,8.70
2022-08-22T18:26:42.679Z,13.20
2022-08-22T18:29:13.064Z,11.30
2022-08-22T18:32:08.547Z,11.00
2022-08-22T18:35:09.934Z,9.70
2022-08-22T18:37:43.261Z,9.40
2022-08-22T18:40:21.483Z,10.10
2022-08-22T18:43:04.959Z,9.60
2022-08-22T18:45:57.364Z,10.20
2022-08-22T18:48:31.550Z,10.10
2022-08-22T18:51:25.365Z,10.90
2022-08-22T18:54:20.269Z,11.10
2022-08-22T18:56:54.262Z,10.70
2022-08-22T18:59:37.543Z,10.60
2022-08-22T19:02:40.746Z,11.00
2022-08-22T19:05:21.346Z,11.30
2022-08-22T19:08:18.798Z,12.00
2022-08-22T19:11:07.502Z,12.20
2022-08-22T19:13:51.497Z,12.60
2022-08-22T19:16:33.552Z,11.20
2022-08-22T19:19:09.180Z,11.40
2022-08-22T19:22:19.376Z,11.80
2022-08-22T19:25:05.930Z,11.80
2022-08-22T19:27:45.307Z,11.10
2022-08-22T19:30:44.457Z,12.40
2022-08-22T19:33:39.420Z,13.40
2022-08-22T19:36:30.611Z,13.60
2022-08-22T19:39:09.182Z,15.50
2022-08-22T19:41:56.580Z,16.40
2022-08-22T19:44:42.190Z,18.40
2022-08-22T19:47:21.345Z,19.00
2022-08-22T19:50:00.994Z,30.10
2022-08-22T19:55:27.751Z,20.70
2022-08-22T19:58:32.812Z,19.50
2022-08-22T20:01:45.752Z,19.20
2022-08-22T20:04:35.331Z,18.40
2022-08-22T20:07:14.874Z,17.30
2022-08-22T20:12:57.241Z,16.80
2022-08-22T20:15:27.645Z,15.00
2022-08-22T20:20:59.705Z,16.20
2022-08-22T20:23:32.591Z,17.80
2022-08-22T20:26:01.237Z,17.40
2022-08-22T20:28:48.468Z,18.50
2022-08-22T20:31:24.054Z,18.70
2022-08-22T20:33:58.328Z,21.50
2022-08-22T20:36:29.303Z,39.10
2022-08-22T20:39:09.040Z,30.40
2022-08-22T20:41:44.304Z,26.00
2022-08-22T20:44:28.352Z,35.30
2022-08-22T20:47:01.420Z,71.10
2022-08-22T20:49:56.973Z,35.70
2022-08-22T20:52:35.377Z,24.60
2022-08-22T20:55:08.606Z,27.60
2022-08-22T20:57:49.252Z,25.50
2022-08-22T21:00:28.305Z,27.60
2022-08-22T21:03:09.499Z,26.40
2022-08-22T21:05:41.709Z,27.90
2022-08-22T21:08:27.150Z,26.00
2022-08-22T21:11:22.939Z,26.00
2022-08-22T21:13:51.939Z,31.30
2022-08-22T21:16:33.161Z,43.90
2022-08-22T21:19:03.542Z,53.80
2022-08-22T21:21:39.192Z,38.40
2022-08-22T21:24:10.932Z,30.10
2022-08-22T21:27:02.425Z,28.20
2022-08-22T21:29:46.470Z,27.50
2022-08-22T21:32:51.161Z,28.40
2022-08-22T21:35:31.814Z,28.20
2022-08-22T21:38:04.359Z,27.40
2022-08-22T21:40:37.646Z,27.80
2022-08-22T21:43:11.649Z,26.70
2022-08-22T21:45:39.475Z,27.20
2022-08-22T21:48:35.036Z,25.90
2022-08-22T21:51:22.483Z,25.40
2022-08-22T21:54:16.113Z,26.10
2022-08-22T21:56:41.820Z,24.30
2022-08-22T21:59:52.198Z,23.70
2022-08-22T22:02:41.773Z,24.70
2022-08-22T22:05:15.521Z,22.90
2022-08-22T22:07:46.582Z,22.40
2022-08-22T22:10:18.400Z,22.50
2022-08-22T22:12:48.695Z,20.70
2022-08-22T22:15:21.661Z,22.50
2022-08-22T22:17:49.249Z,21.20
2022-08-22T22:20:18.539Z,20.50
2022-08-22T22:22:49.689Z,19.60
2022-08-22T22:25:40.346Z,20.40
2022-08-22T22:28:42.217Z,21.20
2022-08-22T22:31:13.739Z,20.20
2022-08-22T22:33:47.263Z,21.10
2022-08-22T22:36:33.399Z,21.90
2022-08-22T22:39:11.522Z,22.70
2022-08-22T22:41:43.179Z,23.20
2022-08-22T22:44:11.736Z,21.80
2022-08-22T22:46:42.920Z,22.60
2022-08-22T22:49:11.138Z,22.60
2022-08-22T22:51:40.552Z,22.90
2022-08-22T22:54:07.766Z,20.90
2022-08-22T22:56:39.380Z,20.50
2022-08-22T22:59:12.687Z,19.60
2022-08-22T23:02:08.887Z,18.40
2022-08-22T23:04:42.986Z,17.80
2022-08-22T23:07:16.492Z,15.30
2022-08-22T23:10:06.773Z,15.20
2022-08-22T23:12:39.065Z,13.40
2022-08-22T23:15:07.376Z,11.30
2022-08-22T23:17:40.817Z,10.70
2022-08-22T23:20:08.720Z,11.20
2022-08-22T23:22:36.066Z,10.70
2022-08-22T23:25:04.850Z,11.50
2022-08-22T23:27:33.563Z,11.50
2022-08-22T23:30:03.083Z,12.30
2022-08-22T23:32:31.334Z,11.20
2022-08-22T23:34:58.765Z,11.10
2022-08-22T23:37:26.029Z,11.40
2022-08-22T23:39:54.592Z,12.00
2022-08-22T23:42:21.962Z,11.60
2022-08-22T23:44:49.563Z,11.50
2022-08-22T23:47:20.238Z,12.50
2022-08-22T23:49:49.260Z,11.50
2022-08-22T23:52:16.691Z,11.60
2022-08-22T23:54:46.149Z,11.30
2022-08-22T23:57:15.971Z,10.20
2022-08-22T23:59:48.007Z,10.90
